Time;durP1;ratioP1;P1;durP2;ratioP2;P2;SDS_P1;SDS_P2;PMS_P1;PMS_P2;Temp;Humidity;BMP_temperature;BMP_pressure;BME280_temperature;BME280_humidity;BME280_pressure;Samples;Min_cycle;Max_cycle;Signal;HPM_P1;HPM_P2
2023/05/11 00:01:15;;;;;;;13.40;2.85;;;14.10;99.90;;;;;;5111918;28;20477;-70
2023/05/11 00:03:41;;;;;;;9.90;2.65;;;14.20;99.90;;;;;;5111707;28;20015;-70
2023/05/11 00:06:07;;;;;;;12.65;3.20;;;14.20;99.90;;;;;;5112009;28;20814;-69
2023/05/11 00:08:32;;;;;;;12.63;2.95;;;14.20;99.90;;;;;;5111843;28;20027;-70
2023/05/11 00:11:00;;;;;;;10.90;2.92;;;14.20;99.90;;;;;;5111855;28;20035;-70
2023/05/11 00:13:26;;;;;;;12.48;3.08;;;14.20;99.90;;;;;;5112058;28;20055;-70
2023/05/11 00:15:52;;;;;;;16.35;3.30;;;14.20;99.90;;;;;;5112014;28;20499;-70
2023/05/11 00:18:18;;;;;;;12.15;2.97;;;14.20;99.90;;;;;;5111503;28;20023;-69
2023/05/11 00:20:44;;;;;;;15.27;3.33;;;14.20;99.90;;;;;;5111865;28;20031;-69
2023/05/11 00:23:10;;;;;;;16.40;3.15;;;14.20;99.90;;;;;;5111494;28;20027;-70
2023/05/11 00:25:36;;;;;;;12.40;3.08;;;14.20;99.90;;;;;;5111560;28;20089;-68
2023/05/11 00:28:01;;;;;;;10.93;3.33;;;14.10;99.90;;;;;;5112030;28;20032;-69
2023/05/11 00:30:27;;;;;;;11.57;3.10;;;14.00;99.90;;;;;;5111685;28;20023;-69
2023/05/11 00:32:53;;;;;;;14.93;3.72;;;13.90;99.90;;;;;;5111469;28;20423;-69
2023/05/11 00:35:18;;;;;;;11.45;3.22;;;13.80;99.90;;;;;;5111991;28;20088;-70
2023/05/11 00:37:44;;;;;;;12.57;3.20;;;13.60;99.90;;;;;;5111663;28;20043;-70
2023/05/11 00:40:10;;;;;;;13.07;3.25;;;13.50;99.90;;;;;;5111840;28;20484;-70
2023/05/11 00:42:35;;;;;;;9.65;3.10;;;13.40;99.90;;;;;;5111746;28;20030;-70
2023/05/11 00:45:01;;;;;;;10.05;3.25;;;13.40;99.90;;;;;;5111317;28;20036;-70
2023/05/11 00:47:27;;;;;;;9.70;3.17;;;13.30;99.90;;;;;;5111211;28;20027;-69
2023/05/11 00:49:54;;;;;;;12.80;3.58;;;13.20;99.90;;;;;;5111834;28;20549;-69
2023/05/11 00:52:21;;;;;;;13.68;3.35;;;13.10;99.90;;;;;;5111066;28;20028;-70
2023/05/11 00:54:47;;;;;;;13.38;3.17;;;13.10;99.90;;;;;;5111666;28;20404;-70
2023/05/11 00:57:14;;;;;;;13.52;3.42;;;13.10;99.90;;;;;;5111442;28;20537;-69
2023/05/11 00:59:40;;;;;;;12.07;3.72;;;13.10;99.90;;;;;;5111184;28;20090;-70
2023/05/11 01:02:06;;;;;;;12.38;3.20;;;13.10;99.90;;;;;;5111228;28;20106;-67
2023/05/11 01:04:32;;;;;;;13.98;2.90;;;13.10;99.90;;;;;;5111711;28;20023;-69
2023/05/11 01:07:04;;;;;;;13.70;3.20;;;13.10;99.90;;;;;;5111509;28;20027;-70
2023/05/11 01:09:37;;;;;;;13.75;2.75;;;13.20;99.90;;;;;;5114661;28;20061;-70
2023/05/11 01:12:09;;;;;;;12.93;2.78;;;13.20;99.90;;;;;;5115354;28;20130;-70
2023/05/11 01:14:45;;;;;;;14.20;2.60;;;13.30;99.90;;;;;;5115316;28;20024;-69
2023/05/11 01:17:21;;;;;;;11.50;2.80;;;13.20;99.90;;;;;;5115000;28;20024;-71
2023/05/11 01:19:55;;;;;;;11.98;2.53;;;13.20;99.90;;;;;;5115106;28;20110;-70
2023/05/11 01:22:21;;;;;;;;;;;13.30;99.90;;;;;;5115311;28;20069;-70
2023/05/11 01:25:26;;;;;;;10.73;2.50;;;13.30;99.90;;;;;;5115138;28;19915;-69
2023/05/11 01:28:12;;;;;;;11.60;2.60;;;13.20;99.90;;;;;;5115095;28;20084;-68
2023/05/11 01:30:52;;;;;;;12.70;2.38;;;13.20;99.90;;;;;;5114815;28;20026;-70
2023/05/11 01:33:25;;;;;;;12.10;2.45;;;13.30;99.90;;;;;;5115106;28;20059;-69
2023/05/11 01:35:58;;;;;;;12.93;2.65;;;13.20;99.90;;;;;;5114930;28;20023;-69
2023/05/11 01:38:27;;;;;;;10.20;2.25;;;13.10;99.90;;;;;;5114965;28;20055;-70
2023/05/11 01:40:56;;;;;;;9.45;2.15;;;13.20;99.90;;;;;;5115398;28;20024;-70
2023/05/11 01:43:26;;;;;;;11.23;1.98;;;13.20;99.90;;;;;;5114680;28;20031;-69
2023/05/11 01:45:54;;;;;;;10.52;2.15;;;13.10;99.90;;;;;;5114306;28;20074;-70
2023/05/11 01:48:24;;;;;;;9.98;2.22;;;13.20;99.90;;;;;;5114644;28;20046;-70
2023/05/11 01:50:51;;;;;;;11.65;2.47;;;13.10;99.90;;;;;;5114729;28;20205;-70
2023/05/11 01:53:18;;;;;;;6.68;1.92;;;13.10;99.90;;;;;;5114637;28;20028;-69
2023/05/11 01:55:46;;;;;;;11.88;2.20;;;13.10;99.90;;;;;;5114485;28;20396;-70
2023/05/11 01:58:15;;;;;;;9.95;2.25;;;13.10;99.90;;;;;;5114591;28;20035;-70
2023/05/11 02:00:43;;;;;;;8.93;2.15;;;13.10;99.90;;;;;;5114462;28;20034;-69
2023/05/11 02:03:10;;;;;;;7.60;2.58;;;13.10;99.90;;;;;;5114347;28;20515;-69
2023/05/11 02:05:37;;;;;;;10.38;2.28;;;13.10;99.90;;;;;;5114327;28;20031;-69
2023/05/11 02:08:04;;;;;;;7.40;1.88;;;13.10;99.90;;;;;;5114160;28;20035;-70
2023/05/11 02:10:32;;;;;;;11.82;2.35;;;13.10;99.90;;;;;;5114139;28;20118;-70
2023/05/11 02:12:59;;;;;;;11.73;2.85;;;13.00;99.90;;;;;;5114064;28;20043;-70
2023/05/11 02:15:27;;;;;;;14.45;2.78;;;13.00;99.90;;;;;;5114199;28;20488;-70
2023/05/11 02:17:54;;;;;;;9.77;2.53;;;13.00;99.90;;;;;;5114180;28;20020;-70
2023/05/11 02:20:23;;;;;;;10.20;2.40;;;13.00;99.90;;;;;;5094634;28;20370;-69
2023/05/11 02:22:50;;;;;;;11.48;2.78;;;13.00;99.90;;;;;;5114362;28;20048;-70
2023/05/11 02:25:17;;;;;;;9.38;2.63;;;13.00;99.90;;;;;;5114096;28;20057;-69
2023/05/11 02:27:43;;;;;;;11.32;2.42;;;13.00;99.90;;;;;;5113855;28;20062;-69
2023/05/11 02:30:09;;;;;;;9.48;2.60;;;13.00;99.90;;;;;;5113068;28;20055;-69
2023/05/11 02:32:37;;;;;;;7.53;2.38;;;13.00;99.90;;;;;;5114290;28;20024;-69
2023/05/11 02:35:15;;;;;;;10.88;2.58;;;12.90;99.90;;;;;;5113656;28;20023;-69
2023/05/11 02:37:45;;;;;;;11.82;2.67;;;12.90;99.90;;;;;;5113812;28;20123;-69
2023/05/11 02:40:16;;;;;;;12.68;2.65;;;12.90;99.90;;;;;;5113633;28;20049;-69
2023/05/11 02:42:43;;;;;;;11.52;2.40;;;12.80;99.90;;;;;;5113505;28;20027;-69
2023/05/11 02:45:13;;;;;;;12.98;2.83;;;12.80;99.90;;;;;;5113514;28;20504;-68
2023/05/11 02:47:44;;;;;;;11.00;2.90;;;12.80;99.90;;;;;;5113965;28;20019;-69
2023/05/11 02:50:11;;;;;;;11.05;2.40;;;12.80;99.90;;;;;;5113473;28;20020;-69
2023/05/11 02:52:43;;;;;;;8.65;2.25;;;12.80;99.90;;;;;;5113659;28;20029;-69
2023/05/11 02:55:10;;;;;;;8.32;2.38;;;12.80;99.90;;;;;;5113435;28;20039;-67
2023/05/11 02:57:37;;;;;;;8.45;2.20;;;12.80;99.90;;;;;;5112928;28;20480;-69
2023/05/11 03:00:03;;;;;;;10.70;2.47;;;12.90;99.90;;;;;;5113418;28;20077;-68
2023/05/11 03:02:29;;;;;;;9.45;2.45;;;12.80;99.90;;;;;;5113106;28;20019;-68
2023/05/11 03:04:55;;;;;;;9.43;2.80;;;12.80;99.90;;;;;;5113200;28;20042;-67
2023/05/11 03:07:21;;;;;;;10.30;2.58;;;12.80;99.90;;;;;;5113495;28;20503;-69
2023/05/11 03:09:47;;;;;;;9.45;2.28;;;12.70;99.90;;;;;;5112834;28;20034;-68
2023/05/11 03:12:14;;;;;;;7.78;2.45;;;12.70;99.90;;;;;;5112666;28;20051;-68
2023/05/11 03:14:40;;;;;;;11.43;2.40;;;12.70;99.90;;;;;;5113509;28;20020;-68
2023/05/11 03:17:06;;;;;;;11.32;2.50;;;12.70;99.90;;;;;;5112926;28;20532;-69
2023/05/11 03:19:32;;;;;;;10.95;3.03;;;12.70;99.90;;;;;;5113060;28;20020;-69
2023/05/11 03:21:59;;;;;;;7.88;2.30;;;12.70;99.90;;;;;;5112639;28;20042;-69
2023/05/11 03:24:25;;;;;;;8.82;2.10;;;12.70;99.90;;;;;;5112110;28;20103;-68
2023/05/11 03:26:54;;;;;;;9.55;2.72;;;12.60;99.90;;;;;;5111609;28;20101;-68
2023/05/11 03:29:21;;;;;;;7.13;2.38;;;12.60;99.90;;;;;;5112542;28;20023;-69
2023/05/11 03:31:47;;;;;;;9.15;2.03;;;12.60;99.90;;;;;;5112424;28;20045;-68
2023/05/11 03:34:13;;;;;;;6.35;1.95;;;12.70;99.90;;;;;;5112618;28;20028;-69
2023/05/11 03:36:39;;;;;;;8.38;2.20;;;12.70;99.90;;;;;;5112858;28;20012;-68
2023/05/11 03:39:07;;;;;;;9.43;2.47;;;12.70;99.90;;;;;;5112326;28;20036;-69
2023/05/11 03:41:34;;;;;;;7.97;2.10;;;12.70;99.90;;;;;;5111979;28;20024;-68
2023/05/11 03:44:02;;;;;;;6.43;2.10;;;12.70;99.90;;;;;;5112754;28;20027;-69
2023/05/11 03:46:29;;;;;;;8.90;2.40;;;12.80;99.90;;;;;;5112301;28;20042;-69
2023/05/11 03:48:55;;;;;;;8.32;2.63;;;12.70;99.90;;;;;;5112230;28;20026;-69
2023/05/11 03:51:21;;;;;;;7.55;2.30;;;12.70;99.90;;;;;;5112541;28;20053;-69
2023/05/11 03:53:47;;;;;;;5.78;2.00;;;12.80;99.90;;;;;;5112281;28;20024;-69
2023/05/11 03:56:12;;;;;;;5.68;1.92;;;12.70;99.90;;;;;;5111923;28;20034;-69
2023/05/11 03:58:39;;;;;;;7.25;2.20;;;12.70;99.90;;;;;;5112372;28;20103;-69
2023/05/11 04:01:08;;;;;;;9.35;2.53;;;12.60;99.90;;;;;;5111979;28;20023;-69
2023/05/11 04:03:46;;;;;;;9.02;2.67;;;12.60;99.90;;;;;;5112406;28;20080;-69
2023/05/11 04:06:11;;;;;;;8.85;2.30;;;12.70;99.90;;;;;;5111875;28;20476;-69
2023/05/11 04:08:37;;;;;;;7.10;2.25;;;12.60;99.90;;;;;;5111893;28;20037;-69
2023/05/11 04:11:03;;;;;;;5.32;2.20;;;12.60;99.90;;;;;;5111688;28;20061;-69
2023/05/11 04:13:28;;;;;;;5.95;2.35;;;12.60;99.90;;;;;;5111793;28;20048;-68
2023/05/11 04:15:54;;;;;;;8.70;2.40;;;12.70;99.90;;;;;;5112247;28;20027;-68
2023/05/11 04:18:19;;;;;;;11.43;2.60;;;12.60;99.90;;;;;;5111865;28;20023;-68
2023/05/11 04:20:45;;;;;;;9.38;2.70;;;12.70;99.90;;;;;;5111956;28;20032;-69
2023/05/11 04:23:11;;;;;;;7.82;2.20;;;12.70;99.90;;;;;;5111781;28;20419;-68
2023/05/11 04:25:36;;;;;;;10.40;2.22;;;12.70;99.90;;;;;;5111388;28;20553;-68
2023/05/11 04:28:02;;;;;;;9.27;2.38;;;12.70;99.90;;;;;;5111944;28;20016;-69
2023/05/11 04:30:28;;;;;;;10.77;2.60;;;12.70;99.90;;;;;;5111563;28;20057;-69
2023/05/11 04:32:53;;;;;;;8.10;2.67;;;12.70;99.90;;;;;;5111619;28;20027;-69
2023/05/11 04:35:20;;;;;;;8.48;2.30;;;12.60;99.90;;;;;;5093737;28;20083;-69
2023/05/11 04:37:46;;;;;;;9.75;2.55;;;12.60;99.90;;;;;;5111543;28;20030;-69
2023/05/11 04:40:12;;;;;;;8.93;2.45;;;12.50;99.90;;;;;;5111112;28;20027;-69
2023/05/11 04:42:38;;;;;;;5.70;1.95;;;12.50;99.90;;;;;;5113058;28;20015;-68
2023/05/11 04:45:04;;;;;;;10.65;2.60;;;12.50;99.90;;;;;;5118229;28;20039;-69
2023/05/11 04:47:29;;;;;;;6.50;2.50;;;12.50;99.90;;;;;;5118399;28;20099;-68
2023/05/11 04:49:55;;;;;;;7.95;2.58;;;12.50;99.90;;;;;;5118416;28;20547;-67
2023/05/11 04:52:21;;;;;;;8.07;2.50;;;12.50;99.90;;;;;;5118310;28;20026;-69
2023/05/11 04:54:46;;;;;;;6.85;2.20;;;12.40;99.90;;;;;;5118357;28;20374;-69
2023/05/11 04:57:12;;;;;;;6.45;2.40;;;12.50;99.90;;;;;;5118289;28;20023;-68
2023/05/11 04:59:37;;;;;;;6.93;2.20;;;12.50;99.90;;;;;;5118197;28;20031;-67
2023/05/11 05:02:03;;;;;;;8.38;2.70;;;12.40;99.90;;;;;;5118205;28;20027;-67
2023/05/11 05:04:29;;;;;;;6.75;2.60;;;12.40;99.90;;;;;;5118334;28;20027;-67
2023/05/11 05:06:54;;;;;;;7.07;2.50;;;12.40;99.90;;;;;;5118187;28;20024;-66
2023/05/11 05:09:20;;;;;;;6.47;2.53;;;12.50;99.90;;;;;;5117792;28;20024;-67
2023/05/11 05:11:46;;;;;;;9.82;2.65;;;12.40;99.90;;;;;;5117939;28;20035;-67
2023/05/11 05:14:11;;;;;;;5.78;2.40;;;12.50;99.90;;;;;;5117979;28;20081;-68
2023/05/11 05:16:37;;;;;;;6.88;2.40;;;12.60;99.90;;;;;;5118269;28;20031;-67
2023/05/11 05:19:03;;;;;;;7.78;2.45;;;12.60;99.90;;;;;;5118473;28;20043;-67
2023/05/11 05:21:28;;;;;;;7.43;2.45;;;12.60;99.90;;;;;;5118013;28;20094;-67
2023/05/11 05:23:54;;;;;;;9.05;3.00;;;12.60;99.90;;;;;;5117595;28;20058;-68
2023/05/11 05:26:20;;;;;;;6.75;2.53;;;12.60;99.90;;;;;;5118208;28;20029;-67
2023/05/11 05:28:46;;;;;;;9.90;3.17;;;12.70;99.90;;;;;;5117924;28;20019;-66
2023/05/11 05:31:12;;;;;;;11.50;3.13;;;12.60;99.90;;;;;;5117948;28;20080;-66
2023/05/11 05:33:37;;;;;;;7.20;2.83;;;12.60;99.90;;;;;;5118249;28;20046;-67
2023/05/11 05:36:03;;;;;;;7.80;2.63;;;12.60;99.90;;;;;;5117707;28;20027;-67
2023/05/11 05:38:29;;;;;;;11.20;2.90;;;12.60;99.90;;;;;;5116409;27;20046;-67
2023/05/11 05:40:54;;;;;;;9.35;3.35;;;12.60;99.90;;;;;;5117298;28;20035;-67
2023/05/11 05:43:20;;;;;;;10.32;2.90;;;12.70;99.90;;;;;;5117684;27;20031;-67
2023/05/11 05:45:46;;;;;;;8.63;3.08;;;12.60;99.90;;;;;;5117091;28;20070;-67
2023/05/11 05:48:11;;;;;;;9.43;3.00;;;12.60;99.90;;;;;;5116768;27;20032;-67
2023/05/11 05:50:37;;;;;;;10.55;3.25;;;12.60;99.90;;;;;;5116281;28;20023;-67
2023/05/11 05:53:03;;;;;;;10.75;3.60;;;12.60;99.90;;;;;;5116249;27;20113;-67
2023/05/11 05:55:28;;;;;;;10.15;3.42;;;12.70;99.90;;;;;;5114669;28;20024;-67
2023/05/11 05:57:54;;;;;;;12.23;4.10;;;12.70;99.90;;;;;;5114408;27;20023;-66
2023/05/11 06:00:20;;;;;;;14.18;3.63;;;12.70;99.90;;;;;;5114027;28;20103;-67
2023/05/11 06:02:45;;;;;;;13.10;3.13;;;12.70;99.90;;;;;;5114555;28;20023;-67
2023/05/11 06:05:11;;;;;;;13.35;3.20;;;12.60;99.90;;;;;;5095568;28;20027;-67
2023/05/11 06:07:37;;;;;;;13.18;3.50;;;12.70;99.90;;;;;;5113824;28;20392;-67
2023/05/11 06:10:03;;;;;;;10.80;3.40;;;12.70;99.90;;;;;;5113822;28;20055;-67
2023/05/11 06:12:29;;;;;;;15.25;3.83;;;12.80;99.90;;;;;;5113838;28;20055;-66
2023/05/11 06:14:54;;;;;;;12.43;3.10;;;12.80;99.90;;;;;;5114155;28;20438;-66
2023/05/11 06:17:20;;;;;;;15.68;3.83;;;12.80;99.90;;;;;;5113900;28;20034;-67
2023/05/11 06:19:46;;;;;;;14.15;3.50;;;12.90;99.90;;;;;;5113843;27;20027;-67
2023/05/11 06:22:11;;;;;;;13.63;4.05;;;13.00;99.90;;;;;;5113480;28;20088;-67
2023/05/11 06:24:37;;;;;;;14.93;3.42;;;13.00;99.90;;;;;;5114135;28;20697;-66
2023/05/11 06:27:03;;;;;;;15.73;3.70;;;13.00;99.90;;;;;;5113620;28;20148;-67
2023/05/11 06:29:28;;;;;;;13.70;3.45;;;13.10;99.90;;;;;;5113801;28;20032;-67
2023/05/11 06:31:54;;;;;;;11.55;2.95;;;13.10;99.90;;;;;;5111913;28;20015;-67
2023/05/11 06:34:21;;;;;;;19.40;3.97;;;13.20;99.90;;;;;;5113647;27;20581;-67
2023/05/11 06:36:50;;;;;;;16.63;3.88;;;13.20;99.90;;;;;;5113669;28;20027;-66
2023/05/11 06:39:16;;;;;;;14.18;3.50;;;13.30;99.90;;;;;;5112868;27;20044;-67
2023/05/11 06:41:41;;;;;;;17.25;4.25;;;13.40;99.90;;;;;;5113355;28;20030;-66
2023/05/11 06:44:07;;;;;;;14.70;4.15;;;13.40;99.90;;;;;;5112738;28;20031;-67
2023/05/11 06:46:33;;;;;;;21.88;3.80;;;13.50;99.90;;;;;;5113126;28;20050;-67
2023/05/11 06:48:59;;;;;;;15.75;3.88;;;13.50;99.90;;;;;;5113377;28;20023;-66
2023/05/11 06:51:25;;;;;;;18.70;4.63;;;13.50;99.90;;;;;;5095221;28;20027;-67
2023/05/11 06:53:50;;;;;;;15.45;4.00;;;13.60;99.90;;;;;;5112933;28;20442;-66
2023/05/11 06:56:16;;;;;;;14.98;3.58;;;13.60;99.90;;;;;;5113623;28;20472;-66
2023/05/11 06:58:42;;;;;;;15.43;3.38;;;13.50;99.90;;;;;;5113314;27;20054;-66
2023/05/11 07:01:07;;;;;;;13.98;3.92;;;13.50;99.90;;;;;;5113029;28;20160;-66
2023/05/11 07:03:34;;;;;;;11.73;3.47;;;13.40;99.90;;;;;;5112763;28;20020;-67
2023/05/11 07:05:59;;;;;;;15.13;3.38;;;13.40;99.90;;;;;;5112601;28;20043;-67
2023/05/11 07:08:25;;;;;;;16.83;2.88;;;13.40;99.90;;;;;;5112246;28;20533;-67
2023/05/11 07:10:51;;;;;;;11.70;2.97;;;13.40;99.90;;;;;;5113204;28;20822;-66
2023/05/11 07:13:17;;;;;;;11.63;3.17;;;13.40;99.90;;;;;;5112699;28;20093;-67
2023/05/11 07:15:43;;;;;;;9.85;2.50;;;13.40;99.90;;;;;;5112786;28;20035;-67
2023/05/11 07:18:08;;;;;;;9.15;2.70;;;13.50;99.90;;;;;;5112438;28;20455;-67
2023/05/11 07:20:38;;;;;;;7.15;2.40;;;13.60;99.90;;;;;;5112791;27;20028;-67
2023/05/11 07:23:04;;;;;;;12.05;3.35;;;13.70;99.90;;;;;;5112663;28;20031;-66
2023/05/11 07:25:30;;;;;;;10.27;3.22;;;13.80;99.90;;;;;;5112815;28;20047;-67
2023/05/11 07:27:55;;;;;;;12.40;3.08;;;13.80;99.90;;;;;;5112658;28;20084;-66
2023/05/11 07:30:21;;;;;;;10.63;3.00;;;13.90;99.90;;;;;;5112593;28;20027;-67
2023/05/11 07:32:47;;;;;;;13.05;3.08;;;13.90;99.90;;;;;;5112329;28;20020;-67
2023/05/11 07:35:14;;;;;;;16.27;3.30;;;14.00;99.90;;;;;;5112512;28;20040;-67
2023/05/11 07:37:40;;;;;;;9.60;2.83;;;14.00;99.90;;;;;;5112754;28;20392;-66
2023/05/11 07:40:06;;;;;;;13.55;3.30;;;14.10;99.90;;;;;;5112438;28;20024;-66
2023/05/11 07:42:32;;;;;;;17.42;3.90;;;14.30;99.90;;;;;;5112468;28;20098;-66
2023/05/11 07:44:58;;;;;;;12.02;3.42;;;14.30;99.90;;;;;;5112105;28;20027;-66
2023/05/11 07:47:24;;;;;;;16.38;3.20;;;14.30;99.90;;;;;;5111665;28;20487;-66
2023/05/11 07:49:49;;;;;;;10.18;2.95;;;14.50;99.90;;;;;;5112024;28;20101;-65
2023/05/11 07:52:15;;;;;;;12.35;3.33;;;14.50;99.90;;;;;;5112632;28;20069;-66
2023/05/11 07:54:41;;;;;;;10.57;3.28;;;14.60;99.90;;;;;;5112140;28;20515;-66
2023/05/11 07:57:07;;;;;;;10.23;2.97;;;14.70;99.90;;;;;;5112525;28;20042;-66
2023/05/11 07:59:33;;;;;;;13.55;3.35;;;14.70;99.90;;;;;;5111966;28;20027;-68
2023/05/11 08:01:58;;;;;;;12.98;3.72;;;14.80;99.90;;;;;;5111934;28;20024;-66
2023/05/11 08:04:26;;;;;;;14.27;6.97;;;14.90;99.90;;;;;;5111929;28;20479;-65
2023/05/11 08:06:52;;;;;;;12.50;3.30;;;15.00;99.90;;;;;;5111938;28;20036;-64
2023/05/11 08:09:18;;;;;;;12.38;4.00;;;15.00;99.90;;;;;;5111877;28;20031;-65
2023/05/11 08:11:44;;;;;;;14.43;3.67;;;15.20;99.90;;;;;;5112113;28;20023;-67
2023/05/11 08:14:09;;;;;;;12.93;3.30;;;15.30;99.90;;;;;;5111837;28;20020;-68
2023/05/11 08:16:36;;;;;;;10.77;3.17;;;15.40;99.90;;;;;;5111336;28;20503;-69
2023/05/11 08:19:02;;;;;;;15.07;3.65;;;15.40;99.90;;;;;;5111036;28;20038;-69
2023/05/11 08:21:27;;;;;;;11.77;3.40;;;15.30;99.90;;;;;;5111647;28;20031;-69
2023/05/11 08:23:53;;;;;;;12.50;2.88;;;15.30;99.90;;;;;;5093888;28;20038;-68
2023/05/11 08:26:18;;;;;;;16.40;4.18;;;15.20;99.90;;;;;;5111468;28;20032;-69
2023/05/11 08:28:44;;;;;;;22.80;3.70;;;15.30;99.90;;;;;;5111736;28;20054;-67
2023/05/11 08:31:12;;;;;;;17.38;3.85;;;15.30;99.90;;;;;;5111250;28;20030;-73
2023/05/11 08:33:38;;;;;;;16.25;3.47;;;15.20;99.90;;;;;;5111685;28;20093;-74
2023/05/11 08:36:05;;;;;;;16.60;3.55;;;15.20;99.90;;;;;;5111616;28;20023;-71
2023/05/11 08:38:32;;;;;;;12.35;3.25;;;15.20;99.90;;;;;;5111456;28;20027;-71
2023/05/11 08:40:57;;;;;;;14.57;3.38;;;15.10;99.90;;;;;;5111724;28;20120;-69
2023/05/11 08:43:25;;;;;;;15.00;3.53;;;15.20;99.90;;;;;;5111377;28;20046;-77
2023/05/11 08:45:56;;;;;;;13.38;2.95;;;15.20;99.90;;;;;;5111341;28;20050;-73
2023/05/11 08:48:22;;;;;;;13.13;3.15;;;15.20;99.90;;;;;;5111641;28;20019;-75
2023/05/11 08:50:48;;;;;;;9.68;2.72;;;15.10;99.90;;;;;;5111619;28;20067;-74
2023/05/11 08:53:14;;;;;;;9.40;2.22;;;15.20;99.90;;;;;;5111458;28;20066;-72
2023/05/11 08:55:41;;;;;;;8.35;2.15;;;15.20;99.90;;;;;;5110829;28;20065;-73
2023/05/11 08:58:08;;;;;;;9.02;2.20;;;15.10;99.90;;;;;;5110451;28;20024;-73
2023/05/11 09:00:34;;;;;;;6.60;2.13;;;15.10;99.90;;;;;;5110163;28;20495;-72
2023/05/11 09:03:01;;;;;;;8.55;2.05;;;15.10;99.90;;;;;;5110895;28;20061;-74
2023/05/11 09:05:27;;;;;;;7.25;2.30;;;15.00;99.90;;;;;;5111098;28;20035;-73
2023/05/11 09:08:01;;;;;;;9.98;2.47;;;15.10;99.90;;;;;;5111046;28;20507;-73
2023/05/11 09:10:27;;;;;;;8.35;2.28;;;15.10;99.90;;;;;;5110951;28;20598;-73
2023/05/11 09:12:53;;;;;;;8.07;2.20;;;15.20;99.90;;;;;;5112013;28;20394;-73
2023/05/11 09:15:18;;;;;;;10.20;2.38;;;15.20;99.90;;;;;;5110898;28;20038;-73
2023/05/11 09:17:44;;;;;;;9.38;2.42;;;15.20;99.90;;;;;;5110775;28;20024;-73
2023/05/11 09:20:10;;;;;;;8.23;2.42;;;15.20;99.90;;;;;;5111296;28;20027;-73
2023/05/11 09:22:44;;;;;;;6.25;2.15;;;15.30;99.90;;;;;;5111314;28;20052;-73
2023/05/11 09:25:12;;;;;;;8.73;2.22;;;15.20;99.90;;;;;;5111078;28;20042;-73
2023/05/11 09:27:45;;;;;;;7.95;2.20;;;15.10;99.90;;;;;;5111079;28;20144;-73
2023/05/11 09:30:11;;;;;;;5.38;2.00;;;15.20;99.90;;;;;;5113412;28;20035;-73
2023/05/11 09:33:09;;;;;;;8.52;2.13;;;15.30;99.90;;;;;;5115170;28;20395;-75
2023/05/11 09:35:35;;;;;;;5.50;2.20;;;15.40;99.90;;;;;;5012581;28;20097;-73
2023/05/11 09:38:10;;;;;;;7.03;2.35;;;15.30;99.90;;;;;;5012188;28;20748;-74
2023/05/11 09:40:43;;;;;;;6.63;2.67;;;15.30;99.90;;;;;;5011780;28;20030;-74
2023/05/11 09:43:24;;;;;;;10.40;2.80;;;15.30;99.90;;;;;;5011711;28;20038;-74
2023/05/11 09:45:54;;;;;;;7.53;2.47;;;15.30;99.90;;;;;;5028637;28;20042;-73
2023/05/11 09:48:20;;;;;;;10.02;2.90;;;15.40;99.90;;;;;;5011893;28;20097;-73
2023/05/11 09:50:47;;;;;;;10.32;2.80;;;15.60;99.90;;;;;;5011976;28;20454;-73
2023/05/11 09:53:13;;;;;;;11.30;2.85;;;15.70;99.90;;;;;;5011904;28;20055;-73
2023/05/11 09:55:50;;;;;;;8.38;2.58;;;15.70;99.90;;;;;;5011826;28;20034;-73
2023/05/11 09:58:16;;;;;;;7.13;2.42;;;15.90;99.90;;;;;;5011422;28;20056;-74
2023/05/11 10:00:52;;;;;;;10.45;2.70;;;15.90;99.90;;;;;;5012195;28;20487;-74
2023/05/11 10:03:18;;;;;;;9.82;2.90;;;16.00;99.90;;;;;;5011891;28;20034;-74
2023/05/11 10:05:58;;;;;;;11.98;2.80;;;16.10;99.90;;;;;;5011534;28;20050;-74
2023/05/11 10:08:33;;;;;;;13.27;3.30;;;16.20;99.90;;;;;;5010739;28;20026;-73
2023/05/11 10:11:01;;;;;;;10.52;3.03;;;16.30;99.90;;;;;;5045364;28;20093;-73
2023/05/11 10:13:27;;;;;;;11.20;2.90;;;16.10;99.90;;;;;;5092614;28;20040;-72
2023/05/11 10:15:54;;;;;;;11.68;3.08;;;16.00;99.90;;;;;;5075938;28;20039;-73
2023/05/11 10:18:20;;;;;;;8.75;2.55;;;16.00;99.90;;;;;;5093168;28;20028;-73
2023/05/11 10:20:46;;;;;;;10.90;2.80;;;16.10;99.90;;;;;;5093678;28;20031;-73
2023/05/11 10:23:13;;;;;;;7.85;2.20;;;16.30;99.90;;;;;;5093477;28;20024;-72
2023/05/11 10:25:40;;;;;;;10.23;3.28;;;16.50;99.90;;;;;;5093649;28;20024;-72
2023/05/11 10:28:06;;;;;;;11.07;2.90;;;16.50;99.90;;;;;;5093355;28;20020;-73
2023/05/11 10:30:33;;;;;;;9.00;2.80;;;16.40;99.90;;;;;;5092570;28;20103;-73
2023/05/11 10:33:00;;;;;;;11.43;2.90;;;16.30;99.90;;;;;;5103006;28;20020;-72
2023/05/11 10:35:26;;;;;;;10.75;2.95;;;16.30;99.90;;;;;;5112900;28;20035;-73
2023/05/11 10:37:52;;;;;;;6.68;2.33;;;16.20;99.90;;;;;;5113581;28;20023;-74
2023/05/11 10:40:18;;;;;;;7.10;2.40;;;16.10;99.90;;;;;;5113167;28;20036;-74
2023/05/11 10:42:59;;;;;;;9.45;2.80;;;15.90;99.90;;;;;;5113153;28;20477;-75
2023/05/11 10:45:43;;;;;;;8.70;2.67;;;15.90;99.90;;;;;;5113485;28;20042;-74
2023/05/11 10:48:27;;;;;;;11.43;2.70;;;15.80;99.90;;;;;;5113571;28;20055;-74
2023/05/11 10:51:07;;;;;;;10.43;2.80;;;15.80;99.90;;;;;;5113182;28;20019;-74
2023/05/11 10:53:39;;;;;;;7.10;2.50;;;15.80;99.90;;;;;;5113707;28;20035;-74
2023/05/11 10:56:26;;;;;;;7.82;2.17;;;16.00;99.90;;;;;;5112573;28;20020;-74
2023/05/11 10:59:19;;;;;;;7.35;2.00;;;16.10;99.90;;;;;;5113253;28;20424;-74
2023/05/11 11:01:45;;;;;;;5.28;1.95;;;16.20;99.90;;;;;;5112502;28;20412;-75
2023/05/11 11:04:13;;;;;;;6.18;2.00;;;16.20;99.90;;;;;;5112565;28;20028;-75
2023/05/11 11:06:40;;;;;;;7.72;2.33;;;16.20;99.90;;;;;;5112258;28;20102;-74
2023/05/11 11:09:11;;;;;;;8.63;2.35;;;16.30;99.90;;;;;;5112848;28;20476;-75
2023/05/11 11:11:45;;;;;;;9.65;2.63;;;16.30;99.90;;;;;;5112752;28;20030;-74
2023/05/11 11:14:11;;;;;;;;;;;16.40;99.90;;;;;;5111434;28;20076;-75
2023/05/11 11:16:37;;;;;;;9.60;3.03;;;16.50;99.90;;;;;;5112962;28;19904;-74
2023/05/11 11:19:28;;;;;;;8.65;2.10;;;16.50;99.90;;;;;;5112555;28;20024;-73
2023/05/11 11:21:57;;;;;;;7.90;2.58;;;16.40;99.90;;;;;;5112512;28;20081;-72
2023/05/11 11:24:50;;;;;;;7.88;2.25;;;16.40;99.90;;;;;;5111598;28;20027;-73
2023/05/11 11:27:15;;;;;;;5.13;1.70;;;16.40;99.90;;;;;;5108428;28;20047;-74
2023/05/11 11:30:27;;;;;;;11.07;2.50;;;16.40;99.90;;;;;;5112326;28;20028;-74
2023/05/11 11:33:13;;;;;;;8.60;1.85;;;16.50;99.90;;;;;;5108778;28;20044;-74
2023/05/11 11:35:42;;;;;;;6.53;2.05;;;16.50;99.90;;;;;;5098456;28;20035;-73
2023/05/11 11:38:09;;;;;;;6.65;1.88;;;16.70;99.90;;;;;;5112212;28;20076;-74
2023/05/11 11:40:44;;;;;;;5.40;1.83;;;16.70;99.90;;;;;;5112097;28;20557;-74
2023/05/11 11:43:22;;;;;;;8.30;2.20;;;16.70;99.90;;;;;;5112540;28;20515;-73
2023/05/11 11:46:03;;;;;;;7.07;2.20;;;16.70;99.90;;;;;;5112279;28;20042;-73
2023/05/11 11:48:40;;;;;;;8.25;2.15;;;16.70;99.90;;;;;;5112379;28;20031;-73
2023/05/11 11:51:10;;;;;;;6.68;2.20;;;16.90;99.90;;;;;;5111365;27;20488;-74
2023/05/11 11:53:36;;;;;;;6.30;2.00;;;17.10;99.90;;;;;;5111888;28;20035;-70
2023/05/11 11:56:06;;;;;;;6.55;2.10;;;17.00;99.90;;;;;;5112260;28;20019;-71
2023/05/11 11:58:43;;;;;;;5.30;1.80;;;16.80;99.90;;;;;;5112068;28;20097;-72
2023/05/11 12:01:14;;;;;;;7.78;1.90;;;16.80;99.90;;;;;;5112530;28;20081;-72
2023/05/11 12:03:42;;;;;;;8.57;2.78;;;16.80;99.90;;;;;;5112258;28;20393;-72
2023/05/11 12:06:09;;;;;;;6.88;1.90;;;16.80;99.90;;;;;;5111913;28;20046;-71
2023/05/11 12:08:36;;;;;;;6.35;2.00;;;17.00;99.90;;;;;;5111503;28;20741;-72
2023/05/11 12:11:03;;;;;;;9.30;2.28;;;17.20;99.90;;;;;;5112055;28;20027;-71
2023/05/11 12:13:30;;;;;;;9.48;2.75;;;17.20;99.90;;;;;;5112331;28;20488;-72
2023/05/11 12:16:16;;;;;;;8.25;2.33;;;16.90;99.90;;;;;;5112159;28;20094;-71
2023/05/11 12:18:51;;;;;;;9.40;2.70;;;16.60;99.90;;;;;;5111972;28;20030;-72
2023/05/11 12:21:20;;;;;;;9.77;2.30;;;16.50;99.90;;;;;;5111827;28;20034;-72
2023/05/11 12:24:00;;;;;;;7.53;2.30;;;16.50;99.90;;;;;;5111446;28;20032;-72
2023/05/11 12:26:27;;;;;;;8.02;2.25;;;16.50;99.90;;;;;;5111703;28;20035;-71
2023/05/11 12:29:14;;;;;;;7.38;2.20;;;16.70;99.90;;;;;;5111749;28;20062;-72
2023/05/11 12:31:42;;;;;;;7.32;2.15;;;16.80;99.90;;;;;;5111658;28;20042;-72
2023/05/11 12:34:18;;;;;;;5.68;1.63;;;16.90;99.90;;;;;;5112122;28;20032;-72
2023/05/11 12:36:46;;;;;;;9.25;2.33;;;16.90;99.90;;;;;;5111753;28;20039;-72
2023/05/11 12:39:23;;;;;;;6.15;1.83;;;16.90;99.90;;;;;;5111323;28;20031;-72
2023/05/11 12:41:50;;;;;;;7.57;2.17;;;17.00;99.90;;;;;;5111919;28;20100;-72
2023/05/11 12:44:16;;;;;;;5.10;1.50;;;17.10;99.90;;;;;;5111784;28;20457;-72
2023/05/11 12:46:44;;;;;;;5.53;1.73;;;17.40;99.90;;;;;;5111676;28;20045;-72
2023/05/11 12:49:12;;;;;;;5.20;1.58;;;17.50;99.90;;;;;;5093252;28;20082;-72